createdAt,value
2018-12-21T00:00:17.624Z,4.13
2018-12-21T00:02:45.195Z,4.50
2018-12-21T00:05:14.244Z,4.43
2018-12-21T00:10:55.738Z,4.43
2018-12-21T00:13:23.717Z,4.40
2018-12-21T00:15:51.219Z,3.60
2018-12-21T00:18:18.641Z,4.03
2018-12-21T00:20:46.331Z,4.20
2018-12-21T00:23:13.861Z,4.10
2018-12-21T00:25:42.370Z,3.37
2018-12-21T00:28:09.725Z,3.80
2018-12-21T00:30:37.363Z,3.87
2018-12-21T00:33:11.650Z,3.60
2018-12-21T00:35:44.480Z,3.20
2018-12-21T00:38:17.276Z,3.40
2018-12-21T00:40:51.209Z,3.33
2018-12-21T00:43:35.122Z,2.77
2018-12-21T00:46:08.040Z,3.67
2018-12-21T00:48:35.675Z,2.73
2018-12-21T00:51:03.444Z,3.57
2018-12-21T00:53:31.013Z,3.10
2018-12-21T00:55:58.480Z,3.10
2018-12-21T00:58:26.010Z,2.90
2018-12-21T01:00:53.535Z,3.50
2018-12-21T01:03:21.054Z,3.83
2018-12-21T01:05:48.684Z,3.03
2018-12-21T01:08:16.333Z,3.10
2018-12-21T01:10:43.776Z,3.80
2018-12-21T01:13:11.990Z,3.97
2018-12-21T01:15:40.315Z,4.07
2018-12-21T01:18:08.033Z,3.83
2018-12-21T01:20:36.788Z,4.87
2018-12-21T01:23:04.289Z,4.57
2018-12-21T01:25:31.912Z,5.30
2018-12-21T01:27:59.911Z,4.40
2018-12-21T01:30:27.333Z,4.33
2018-12-21T01:32:55.032Z,3.57
2018-12-21T01:35:22.466Z,4.00
2018-12-21T01:37:49.960Z,3.63
2018-12-21T01:40:17.537Z,3.83
2018-12-21T01:42:45.166Z,3.77
2018-12-21T01:45:12.638Z,3.50
2018-12-21T01:47:40.090Z,3.73
2018-12-21T01:50:07.586Z,4.60
2018-12-21T01:52:35.090Z,4.07
2018-12-21T01:55:02.556Z,4.27
2018-12-21T01:57:30.010Z,3.97
2018-12-21T02:03:03.943Z,4.50
2018-12-21T02:05:31.388Z,4.00
2018-12-21T02:07:58.889Z,3.97
2018-12-21T02:10:27.178Z,3.70
2018-12-21T02:12:55.612Z,3.83
2018-12-21T02:15:23.817Z,3.70
2018-12-21T02:17:51.335Z,3.80
2018-12-21T02:20:19.336Z,3.23
2018-12-21T02:22:50.369Z,3.50
2018-12-21T02:25:17.943Z,2.90
2018-12-21T02:27:49.733Z,3.37
2018-12-21T02:30:17.287Z,3.30
2018-12-21T02:32:44.762Z,4.07
2018-12-21T02:35:12.244Z,3.40
2018-12-21T02:37:39.807Z,3.10
2018-12-21T02:40:07.226Z,3.40
2018-12-21T02:42:34.871Z,4.10
2018-12-21T02:45:02.432Z,4.40
2018-12-21T02:47:29.972Z,4.77
2018-12-21T02:49:57.497Z,4.60
2018-12-21T02:52:24.943Z,5.33
2018-12-21T02:54:52.912Z,5.97
2018-12-21T02:57:20.629Z,6.57
2018-12-21T02:59:48.208Z,6.67
2018-12-21T03:02:15.703Z,7.30
2018-12-21T03:04:43.122Z,8.00
2018-12-21T03:07:10.618Z,7.70
2018-12-21T03:09:38.167Z,7.93
2018-12-21T03:12:05.646Z,8.43
2018-12-21T03:14:33.564Z,9.20
2018-12-21T03:17:01.224Z,8.70
2018-12-21T03:19:29.766Z,7.73
2018-12-21T03:21:57.409Z,8.50
2018-12-21T03:24:24.899Z,7.70
2018-12-21T03:26:52.336Z,9.60
2018-12-21T03:29:19.787Z,9.00
2018-12-21T03:41:07.487Z,8.40
2018-12-21T03:43:35.185Z,10.17
2018-12-21T03:46:02.730Z,9.37
2018-12-21T03:48:30.380Z,10.80
2018-12-21T03:50:58.021Z,9.50
2018-12-21T03:53:25.512Z,9.27
2018-12-21T03:55:53.939Z,10.23
2018-12-21T03:58:21.464Z,9.50
2018-12-21T04:00:48.972Z,8.67
2018-12-21T04:03:16.609Z,8.60
2018-12-21T04:05:52.073Z,8.33
2018-12-21T04:08:19.459Z,8.40
2018-12-21T04:10:49.126Z,7.97
2018-12-21T04:13:16.614Z,7.30
2018-12-21T04:15:44.286Z,7.40
2018-12-21T04:18:11.758Z,8.60
2018-12-21T04:20:39.223Z,8.57
2018-12-21T04:23:08.858Z,9.00
2018-12-21T04:25:36.318Z,8.60
2018-12-21T04:28:04.028Z,7.67
2018-12-21T04:30:31.543Z,7.10
2018-12-21T04:32:59.089Z,6.83
2018-12-21T04:35:52.483Z,7.53
2018-12-21T04:38:19.990Z,7.23
2018-12-21T04:40:47.528Z,6.10
2018-12-21T04:43:15.023Z,7.10
2018-12-21T04:45:42.451Z,6.63
2018-12-21T04:48:11.639Z,5.87
2018-12-21T04:50:39.118Z,5.33
2018-12-21T04:53:06.610Z,5.60
2018-12-21T04:55:34.035Z,6.27
2018-12-21T04:58:07.528Z,5.97
2018-12-21T05:00:34.996Z,5.30
2018-12-21T05:03:02.445Z,5.63
2018-12-21T05:05:29.938Z,5.00
2018-12-21T05:07:57.344Z,4.90
2018-12-21T05:10:24.871Z,5.37
2018-12-21T05:12:53.111Z,5.57
2018-12-21T05:15:20.573Z,4.90
2018-12-21T05:17:48.134Z,5.03
2018-12-21T05:20:15.626Z,3.90
2018-12-21T05:22:52.046Z,3.97
2018-12-21T05:25:12.728Z,4.33
2018-12-21T05:27:40.290Z,4.63
2018-12-21T05:30:08.186Z,3.47
2018-12-21T05:32:35.763Z,4.63
2018-12-21T05:38:11.342Z,4.23
2018-12-21T05:40:38.917Z,4.43
2018-12-21T05:43:06.868Z,4.47
2018-12-21T05:45:34.416Z,5.57
2018-12-21T05:48:09.424Z,5.63
2018-12-21T05:50:36.893Z,5.20
2018-12-21T05:53:04.392Z,5.37
2018-12-21T05:55:31.946Z,6.37
2018-12-21T05:58:00.239Z,7.07
2018-12-21T06:00:27.685Z,7.40
2018-12-21T06:02:55.732Z,8.07
2018-12-21T06:05:23.994Z,7.63
2018-12-21T06:08:01.730Z,8.27
2018-12-21T06:10:29.680Z,8.90
2018-12-21T06:12:57.138Z,8.57
2018-12-21T06:15:24.574Z,9.77
2018-12-21T06:17:52.146Z,9.50
2018-12-21T06:20:19.788Z,9.13
2018-12-21T06:22:47.243Z,10.47
2018-12-21T06:25:14.685Z,9.97
2018-12-21T06:27:42.182Z,10.63
2018-12-21T06:30:11.495Z,9.60
2018-12-21T06:32:43.090Z,10.17
2018-12-21T06:35:11.262Z,9.70
2018-12-21T06:37:38.917Z,9.23
2018-12-21T06:40:06.598Z,10.73
2018-12-21T06:42:34.146Z,10.37
2018-12-21T06:45:06.133Z,9.50
2018-12-21T06:47:33.587Z,11.83
2018-12-21T06:50:01.098Z,10.97
2018-12-21T06:52:29.281Z,11.20
2018-12-21T06:54:57.701Z,11.33
2018-12-21T06:57:25.246Z,12.10
2018-12-21T06:59:52.784Z,11.27
2018-12-21T07:02:20.317Z,11.57
2018-12-21T07:04:47.936Z,11.97
2018-12-21T07:07:16.005Z,12.57
2018-12-21T07:09:43.850Z,12.40
2018-12-21T07:12:11.708Z,13.53
2018-12-21T07:14:40.453Z,12.83
2018-12-21T07:17:08.042Z,14.43
2018-12-21T07:19:36.602Z,13.87
2018-12-21T07:22:04.449Z,12.73
2018-12-21T07:24:32.629Z,13.27
2018-12-21T07:27:00.216Z,12.30
2018-12-21T07:29:27.656Z,9.07
2018-12-21T07:31:55.193Z,9.37
2018-12-21T07:34:22.832Z,9.10
2018-12-21T07:36:50.494Z,8.30
2018-12-21T07:39:18.237Z,7.60
2018-12-21T07:41:46.427Z,8.17
2018-12-21T07:44:15.059Z,6.90
2018-12-21T07:46:42.610Z,6.93
2018-12-21T07:49:10.016Z,5.50
2018-12-21T07:51:37.523Z,4.77
2018-12-21T07:54:04.978Z,4.83
2018-12-21T07:56:32.548Z,4.97
2018-12-21T07:59:00.101Z,4.37
2018-12-21T08:01:27.550Z,4.00
2018-12-21T08:03:55.144Z,3.43
2018-12-21T08:06:22.609Z,3.57
2018-12-21T08:08:50.139Z,3.60
2018-12-21T08:11:17.658Z,3.53
2018-12-21T08:13:45.641Z,2.93
2018-12-21T08:16:13.201Z,3.00
2018-12-21T08:18:40.693Z,2.40
2018-12-21T08:21:08.262Z,2.63
2018-12-21T08:23:44.102Z,2.67
2018-12-21T08:26:05.985Z,4.20
2018-12-21T08:28:33.478Z,2.47
2018-12-21T08:31:00.910Z,2.37
2018-12-21T08:33:28.402Z,2.40
2018-12-21T08:35:55.871Z,2.63
2018-12-21T08:38:23.386Z,4.63
2018-12-21T08:40:50.835Z,5.70
2018-12-21T08:43:18.403Z,7.80
2018-12-21T08:45:46.520Z,7.77
2018-12-21T08:48:14.159Z,9.47
2018-12-21T08:50:41.771Z,10.07
2018-12-21T08:53:10.069Z,10.27
2018-12-21T08:55:41.647Z,9.23
2018-12-21T08:58:13.514Z,9.30
2018-12-21T09:00:41.005Z,7.27
2018-12-21T09:03:08.604Z,6.90
2018-12-21T09:05:36.764Z,6.30
2018-12-21T09:08:04.320Z,6.67
2018-12-21T09:10:32.015Z,5.60
2018-12-21T09:13:20.837Z,6.53
2018-12-21T09:15:48.358Z,6.10
2018-12-21T09:18:16.181Z,5.80
2018-12-21T09:20:43.655Z,4.30
2018-12-21T09:23:11.226Z,5.27
2018-12-21T09:25:42.747Z,4.03
2018-12-21T09:28:10.204Z,4.13
2018-12-21T09:30:37.917Z,4.33
2018-12-21T09:33:05.530Z,5.40
2018-12-21T09:35:33.746Z,3.93
2018-12-21T09:38:01.547Z,4.00
2018-12-21T09:40:29.152Z,4.33
2018-12-21T09:43:22.282Z,4.10
2018-12-21T09:45:51.362Z,4.47
2018-12-21T09:48:19.740Z,4.80
2018-12-21T09:50:48.418Z,4.13
2018-12-21T09:53:16.239Z,4.27
2018-12-21T09:55:43.879Z,4.07
2018-12-21T09:58:11.453Z,4.73
2018-12-21T10:00:42.735Z,4.20
2018-12-21T10:03:10.329Z,5.27
2018-12-21T10:05:42.322Z,4.70
2018-12-21T10:08:09.896Z,3.53
2018-12-21T10:10:37.495Z,5.03
2018-12-21T10:13:09.343Z,5.73
2018-12-21T10:15:37.461Z,4.03
2018-12-21T10:18:07.254Z,4.67
2018-12-21T10:20:34.813Z,4.40
2018-12-21T10:23:02.488Z,4.73
2018-12-21T10:25:29.975Z,4.93
2018-12-21T10:27:57.572Z,5.43
2018-12-21T10:30:25.134Z,4.27
2018-12-21T10:32:52.729Z,3.83
2018-12-21T10:35:20.608Z,3.63
2018-12-21T10:37:48.642Z,3.40
2018-12-21T10:40:20.164Z,4.60
2018-12-21T10:42:52.658Z,4.50
2018-12-21T10:45:20.401Z,5.07
2018-12-21T10:47:48.153Z,4.63
2018-12-21T10:50:16.602Z,3.80
2018-12-21T10:52:44.221Z,4.33
2018-12-21T10:55:12.361Z,4.57
2018-12-21T10:57:40.700Z,5.60
2018-12-21T11:00:10.843Z,4.73
2018-12-21T11:02:40.005Z,5.10
2018-12-21T11:05:07.792Z,4.30
2018-12-21T11:07:36.949Z,4.60
2018-12-21T11:10:09.520Z,5.53
2018-12-21T11:12:38.189Z,4.50
2018-12-21T11:15:06.914Z,5.80
2018-12-21T11:17:34.650Z,4.60
2018-12-21T11:20:06.520Z,5.03
2018-12-21T11:22:38.439Z,4.07
2018-12-21T11:25:07.387Z,5.10
2018-12-21T11:27:37.163Z,5.13
2018-12-21T11:30:05.716Z,4.77
2018-12-21T11:32:34.391Z,4.90
2018-12-21T11:35:02.463Z,4.80
2018-12-21T11:37:30.198Z,5.23
2018-12-21T11:39:58.520Z,4.33
2018-12-21T11:42:26.424Z,5.47
2018-12-21T11:44:53.993Z,4.90
2018-12-21T11:47:22.277Z,4.87
2018-12-21T11:49:51.996Z,5.43
2018-12-21T11:52:19.516Z,4.73
2018-12-21T11:54:47.932Z,5.57
2018-12-21T11:57:17.991Z,5.53
2018-12-21T11:59:46.603Z,5.47
2018-12-21T12:02:19.750Z,4.80
2018-12-21T12:04:50.986Z,4.90
2018-12-21T12:07:19.191Z,4.73
2018-12-21T12:09:47.228Z,3.87
2018-12-21T12:12:20.523Z,4.27
2018-12-21T12:14:49.027Z,4.80
2018-12-21T12:17:21.084Z,4.00
2018-12-21T12:19:53.109Z,4.30
2018-12-21T12:22:21.619Z,3.67
2018-12-21T12:24:52.929Z,4.03
2018-12-21T12:27:19.031Z,4.83
2018-12-21T12:29:47.051Z,5.43
2018-12-21T12:32:14.835Z,4.33
2018-12-21T12:34:44.834Z,5.27
2018-12-21T12:37:12.741Z,5.03
2018-12-21T12:39:40.258Z,5.40
2018-12-21T12:42:07.786Z,5.77
2018-12-21T12:44:35.379Z,5.97
2018-12-21T12:47:02.932Z,5.50
2018-12-21T12:49:30.532Z,6.30
2018-12-21T12:51:58.125Z,6.33
2018-12-21T12:54:27.073Z,6.37
2018-12-21T12:56:54.657Z,6.60
2018-12-21T12:59:23.106Z,5.37
2018-12-21T13:01:50.847Z,6.13
2018-12-21T13:04:18.453Z,6.90
2018-12-21T13:06:46.668Z,6.40
2018-12-21T13:09:14.364Z,7.40
2018-12-21T13:11:41.909Z,6.90
2018-12-21T13:14:09.468Z,6.57
2018-12-21T13:16:37.570Z,8.03
2018-12-21T13:19:05.205Z,6.60
2018-12-21T13:21:32.875Z,5.87
2018-12-21T13:24:00.586Z,6.87
2018-12-21T13:26:32.707Z,7.57
2018-12-21T13:29:00.247Z,7.67
2018-12-21T13:31:27.856Z,6.77
2018-12-21T13:33:55.449Z,6.67
2018-12-21T13:36:24.014Z,7.67
2018-12-21T13:38:51.507Z,8.00
2018-12-21T13:41:19.037Z,8.17
2018-12-21T13:43:46.778Z,6.20
2018-12-21T13:46:14.408Z,7.37
2018-12-21T13:48:41.914Z,6.60
2018-12-21T13:51:09.820Z,7.17
2018-12-21T13:53:43.027Z,8.43
2018-12-21T13:56:10.617Z,6.07
2018-12-21T13:58:38.291Z,6.07
2018-12-21T14:01:05.856Z,6.93
2018-12-21T14:03:33.376Z,6.97
2018-12-21T14:06:00.986Z,5.57
2018-12-21T14:08:28.933Z,6.47
2018-12-21T14:10:56.483Z,5.63
2018-12-21T14:13:24.608Z,5.43
2018-12-21T14:15:52.116Z,5.73
2018-12-21T14:18:20.266Z,6.07
2018-12-21T14:20:47.778Z,5.47
2018-12-21T14:23:15.788Z,6.73
2018-12-21T14:25:47.176Z,6.33
2018-12-21T14:28:14.761Z,7.43
2018-12-21T14:30:42.392Z,6.20
2018-12-21T14:33:10.056Z,5.77
2018-12-21T14:35:38.028Z,6.97
2018-12-21T14:38:05.873Z,6.70
2018-12-21T14:40:33.734Z,6.23
2018-12-21T14:43:01.332Z,6.30
2018-12-21T14:45:29.374Z,6.63
2018-12-21T14:47:57.875Z,6.17
2018-12-21T14:50:25.374Z,6.47
2018-12-21T14:52:53.438Z,6.80
2018-12-21T14:55:22.029Z,7.10
2018-12-21T14:57:49.547Z,6.17
2018-12-21T15:00:17.651Z,5.97
2018-12-21T15:02:46.169Z,6.03
2018-12-21T15:05:13.767Z,5.83
2018-12-21T15:07:42.338Z,6.17
2018-12-21T15:10:11.416Z,7.40
2018-12-21T15:12:39.020Z,5.10
2018-12-21T15:15:07.963Z,5.27
2018-12-21T15:17:35.555Z,6.20
2018-12-21T15:20:04.195Z,6.17
2018-12-21T15:22:31.773Z,5.83
2018-12-21T15:24:59.656Z,6.93
2018-12-21T15:27:27.302Z,6.30
2018-12-21T15:29:58.182Z,6.43
2018-12-21T15:32:27.424Z,5.97
2018-12-21T15:35:01.829Z,6.80
2018-12-21T15:37:29.353Z,6.73
2018-12-21T15:39:57.315Z,7.27
2018-12-21T15:42:29.194Z,6.33
2018-12-21T15:44:57.524Z,6.97
2018-12-21T15:47:31.528Z,7.93
2018-12-21T15:49:59.098Z,6.83
2018-12-21T15:52:26.718Z,6.93
2018-12-21T15:54:54.992Z,7.10
2018-12-21T15:57:22.507Z,6.53
2018-12-21T15:59:51.430Z,6.97
2018-12-21T16:02:18.985Z,5.83
2018-12-21T16:04:47.520Z,6.97
2018-12-21T16:07:15.664Z,6.37
2018-12-21T16:09:43.706Z,6.73
2018-12-21T16:12:11.285Z,7.87
2018-12-21T16:14:43.147Z,7.33
2018-12-21T16:17:10.679Z,7.20
2018-12-21T16:19:38.652Z,7.17
2018-12-21T16:22:06.287Z,6.40
2018-12-21T16:24:35.483Z,7.53
2018-12-21T16:27:03.297Z,6.47
2018-12-21T16:29:30.838Z,7.57
2018-12-21T16:31:58.367Z,7.20
2018-12-21T16:34:25.950Z,7.57
2018-12-21T16:36:53.427Z,7.00
2018-12-21T16:39:20.911Z,8.20
2018-12-21T16:41:48.439Z,6.80
2018-12-21T16:44:15.964Z,7.03
2018-12-21T16:46:43.414Z,6.37
2018-12-21T16:49:11.053Z,7.40
2018-12-21T16:51:38.635Z,6.83
2018-12-21T16:54:06.139Z,6.33
2018-12-21T16:56:33.625Z,7.70
2018-12-21T16:59:01.844Z,6.67
2018-12-21T17:01:30.043Z,7.67
2018-12-21T17:04:02.884Z,6.27
2018-12-21T17:06:30.359Z,6.43
2018-12-21T17:09:02.576Z,7.00
2018-12-21T17:11:30.126Z,6.97
2018-12-21T17:13:57.617Z,7.53
2018-12-21T17:16:25.668Z,7.17
2018-12-21T17:18:53.252Z,8.37
2018-12-21T17:21:20.877Z,6.83
2018-12-21T17:23:48.835Z,6.10
2018-12-21T17:26:21.196Z,7.07
2018-12-21T17:28:46.982Z,7.47
2018-12-21T17:31:15.551Z,7.80
2018-12-21T17:33:43.075Z,7.57
2018-12-21T17:36:11.638Z,6.87
2018-12-21T17:38:40.223Z,6.67
2018-12-21T17:41:08.320Z,6.83
2018-12-21T17:43:35.912Z,6.13
2018-12-21T17:46:03.959Z,6.73
2018-12-21T17:48:31.507Z,5.97
2018-12-21T17:50:59.066Z,6.30
2018-12-21T17:53:26.763Z,5.60
2018-12-21T17:55:54.312Z,6.70
2018-12-21T17:58:21.796Z,6.23
2018-12-21T18:00:49.738Z,3.33
2018-12-21T18:03:23.248Z,2.10
2018-12-21T18:05:52.094Z,2.40
2018-12-21T18:08:20.194Z,2.33
2018-12-21T18:10:48.081Z,2.23
2018-12-21T18:13:19.516Z,2.63
2018-12-21T18:15:47.074Z,3.00
2018-12-21T18:18:14.554Z,3.10
2018-12-21T18:20:42.085Z,3.30
2018-12-21T18:23:10.057Z,3.80
2018-12-21T18:25:37.570Z,3.10
2018-12-21T18:28:10.810Z,3.10
2018-12-21T18:30:38.286Z,3.97
2018-12-21T18:33:10.797Z,3.07
2018-12-21T18:35:37.167Z,3.50
2018-12-21T18:38:05.889Z,2.90
2018-12-21T18:40:33.587Z,2.70
2018-12-21T18:43:01.022Z,3.20
2018-12-21T18:45:28.760Z,3.07
2018-12-21T18:47:56.849Z,3.00
2018-12-21T18:50:30.105Z,2.80
2018-12-21T18:53:00.122Z,2.70
2018-12-21T18:55:28.493Z,2.80
2018-12-21T18:57:56.051Z,2.37
2018-12-21T19:00:24.341Z,2.90
2018-12-21T19:02:51.906Z,2.77
2018-12-21T19:05:19.507Z,2.20
2018-12-21T19:07:47.056Z,2.70
2018-12-21T19:10:14.474Z,1.73
2018-12-21T19:12:46.825Z,2.30
2018-12-21T19:15:14.429Z,2.00
2018-12-21T19:17:43.000Z,1.70
2018-12-21T19:20:12.409Z,1.80
2018-12-21T19:22:40.134Z,1.87
2018-12-21T19:25:08.802Z,1.90
2018-12-21T19:27:36.402Z,2.30
2018-12-21T19:30:04.305Z,2.10
2018-12-21T19:32:32.376Z,2.13
2018-12-21T19:35:00.577Z,1.97
2018-12-21T19:37:28.135Z,1.87
2018-12-21T19:39:55.626Z,2.80
2018-12-21T19:42:23.083Z,1.87
2018-12-21T19:44:50.781Z,2.20
2018-12-21T19:47:18.827Z,2.53
2018-12-21T19:49:46.397Z,2.23
2018-12-21T19:52:14.744Z,2.27
2018-12-21T19:54:42.408Z,2.30
2018-12-21T19:57:11.163Z,2.77
2018-12-21T19:59:38.686Z,2.13
2018-12-21T20:02:07.285Z,1.90
2018-12-21T20:04:35.624Z,2.00
2018-12-21T20:07:03.123Z,2.17
2018-12-21T20:09:30.940Z,2.07
2018-12-21T20:11:59.480Z,1.60
2018-12-21T20:14:27.181Z,2.03
2018-12-21T20:20:01.245Z,2.37
2018-12-21T20:22:28.714Z,2.30
2018-12-21T20:24:58.184Z,2.63
2018-12-21T20:27:25.735Z,2.90
2018-12-21T20:29:53.323Z,2.83
2018-12-21T20:32:22.033Z,2.90
2018-12-21T20:34:50.482Z,2.50
2018-12-21T20:37:18.651Z,2.17
2018-12-21T20:39:46.813Z,2.87
2018-12-21T20:42:14.800Z,2.80
2018-12-21T20:44:44.534Z,2.70
2018-12-21T20:47:12.145Z,3.20
2018-12-21T20:49:39.657Z,2.37
2018-12-21T20:52:08.005Z,2.30
2018-12-21T20:54:35.457Z,1.70
2018-12-21T20:57:03.535Z,2.00
2018-12-21T20:59:36.347Z,1.70
2018-12-21T21:02:04.646Z,1.90
2018-12-21T21:04:32.160Z,1.30
2018-12-21T21:07:00.515Z,1.90
2018-12-21T21:09:28.203Z,1.93
2018-12-21T21:11:55.602Z,1.57
2018-12-21T21:14:23.555Z,2.20
2018-12-21T21:16:51.066Z,1.87
2018-12-21T21:19:18.478Z,1.97
2018-12-21T21:21:46.141Z,2.77
2018-12-21T21:24:13.781Z,2.43
2018-12-21T21:26:42.202Z,2.87
2018-12-21T21:29:09.640Z,3.27
2018-12-21T21:31:38.483Z,3.03
2018-12-21T21:34:05.917Z,3.50
2018-12-21T21:36:33.383Z,3.80
2018-12-21T21:39:05.346Z,3.37
2018-12-21T21:41:32.785Z,4.60
2018-12-21T21:44:01.380Z,6.40
2018-12-21T21:46:28.991Z,7.00
2018-12-21T21:48:56.584Z,5.90
2018-12-21T21:51:24.135Z,6.67
2018-12-21T21:53:51.587Z,6.40
2018-12-21T21:56:19.465Z,6.00
2018-12-21T21:58:47.238Z,7.13
2018-12-21T22:01:14.912Z,6.40
2018-12-21T22:03:42.413Z,6.30
2018-12-21T22:06:10.192Z,7.80
2018-12-21T22:08:38.759Z,8.73
2018-12-21T22:11:06.256Z,7.70
2018-12-21T22:13:33.818Z,7.93
2018-12-21T22:16:01.340Z,8.30
2018-12-21T22:18:50.677Z,7.87
2018-12-21T22:21:19.226Z,9.77
2018-12-21T22:23:46.793Z,8.87
2018-12-21T22:26:14.562Z,9.80
2018-12-21T22:28:49.143Z,8.50
2018-12-21T22:31:24.306Z,7.90
2018-12-21T22:33:51.849Z,9.20
2018-12-21T22:36:19.357Z,9.00
2018-12-21T22:38:57.920Z,11.33
2018-12-21T22:41:34.073Z,9.77
2018-12-21T22:44:01.687Z,9.40
2018-12-21T22:46:31.098Z,9.57
2018-12-21T22:48:59.219Z,8.77
2018-12-21T22:51:28.001Z,8.40
2018-12-21T22:54:08.506Z,8.70
2018-12-21T22:56:39.539Z,8.17
2018-12-21T23:02:33.520Z,8.73
2018-12-21T23:05:01.107Z,7.00
2018-12-21T23:07:28.628Z,6.87
2018-12-21T23:09:56.218Z,7.37
2018-12-21T23:12:31.982Z,8.07
2018-12-21T23:14:59.491Z,7.90
2018-12-21T23:17:27.105Z,7.90
2018-12-21T23:19:54.680Z,7.77
2018-12-21T23:22:22.119Z,7.60
2018-12-21T23:24:49.641Z,7.70
2018-12-21T23:27:17.713Z,7.67
2018-12-21T23:29:45.243Z,6.87
2018-12-21T23:32:12.671Z,7.03
2018-12-21T23:34:41.096Z,8.30
2018-12-21T23:37:08.535Z,7.80
2018-12-21T23:39:36.501Z,8.73
2018-12-21T23:42:04.323Z,8.47
2018-12-21T23:44:31.822Z,9.20
2018-12-21T23:46:59.493Z,7.87
2018-12-21T23:49:30.956Z,7.63
2018-12-21T23:51:58.424Z,6.67
2018-12-21T23:54:26.209Z,7.93
2018-12-21T23:56:53.620Z,7.57
2018-12-21T23:59:21.037Z,8.07
